Time;durP1;ratioP1;P1;durP2;ratioP2;P2;SDS_P1;SDS_P2;PMS_P1;PMS_P2;Temp;Humidity;BMP_temperature;BMP_pressure;BME280_temperature;BME280_humidity;BME280_pressure;Samples;Min_cycle;Max_cycle;Signal;HPM_P1;HPM_P2
2022/10/12 00:02:07;;;;;;;10.23;4.93;;;;;;;13.94;100.00;96715.16;5029558;28;20210;-81
2022/10/12 00:04:34;;;;;;;8.03;4.73;;;;;;;14.02;100.00;96733.78;5034525;28;20214;-81
2022/10/12 00:07:03;;;;;;;6.17;4.40;;;;;;;14.03;100.00;96730.81;5033839;28;20202;-81
2022/10/12 00:09:30;;;;;;;5.77;4.17;;;;;;;14.03;100.00;96730.00;5050300;28;20240;-81
2022/10/12 00:11:57;;;;;;;8.63;4.43;;;;;;;14.08;100.00;96726.56;5031370;28;20206;-81
2022/10/12 00:14:25;;;;;;;8.27;4.40;;;;;;;14.05;100.00;96722.41;5033524;28;20222;-81
2022/10/12 00:16:52;;;;;;;9.70;4.93;;;;;;;14.09;100.00;96723.59;5035238;28;20198;-81
2022/10/12 00:19:19;;;;;;;6.77;4.93;;;;;;;14.05;100.00;96714.28;5029371;28;20236;-81
2022/10/12 00:21:46;;;;;;;7.03;4.03;;;;;;;14.09;100.00;96726.31;5027021;28;20202;-81
2022/10/12 00:24:14;;;;;;;12.50;4.67;;;;;;;14.16;100.00;96737.03;5035281;28;20206;-82
2022/10/12 00:26:41;;;;;;;8.83;4.20;;;;;;;14.13;100.00;96738.31;5026293;28;20202;-81
2022/10/12 00:29:10;;;;;;;6.87;4.17;;;;;;;14.13;100.00;96745.66;5042306;28;20282;-81
2022/10/12 00:31:37;;;;;;;9.60;4.47;;;;;;;14.13;100.00;96743.75;5034935;28;20260;-81
2022/10/12 00:34:04;;;;;;;8.40;4.50;;;;;;;14.11;100.00;96740.47;5048701;28;20214;-81
2022/10/12 00:36:34;;;;;;;6.47;4.47;;;;;;;14.13;100.00;96738.31;5048546;28;20195;-81
2022/10/12 00:39:03;;;;;;;11.13;4.33;;;;;;;14.09;100.00;96729.03;5030872;28;20198;-81
2022/10/12 00:41:36;;;;;;;6.17;4.27;;;;;;;14.11;100.00;96737.75;5024870;28;20242;-81
2022/10/12 00:44:03;;;;;;;6.03;4.97;;;;;;;14.11;100.00;96736.94;5045453;28;20202;-81
2022/10/12 00:46:35;;;;;;;6.87;4.43;;;;;;;14.03;100.00;96730.81;5031782;28;20194;-81
2022/10/12 00:49:10;;;;;;;10.37;4.83;;;;;;;14.08;100.00;96743.66;5042191;28;20206;-81
2022/10/12 00:51:39;;;;;;;7.50;3.93;;;;;;;14.14;100.00;96739.97;5043917;28;20201;-81
2022/10/12 00:54:11;;;;;;;12.23;5.13;;;;;;;14.15;100.00;96730.75;5027678;28;20214;-81
2022/10/12 00:56:44;;;;;;;26.33;7.00;;;;;;;14.08;100.00;96721.94;5029030;28;20210;-81
2022/10/12 00:59:16;;;;;;;19.93;5.90;;;;;;;14.16;100.00;96731.59;5029662;28;20396;-82
2022/10/12 01:01:43;;;;;;;6.60;4.80;;;;;;;14.18;100.00;96732.19;5026846;28;20203;-81
2022/10/12 01:04:12;;;;;;;9.80;4.43;;;;;;;14.16;100.00;96739.75;5046675;28;20237;-82
2022/10/12 01:06:39;;;;;;;9.70;5.80;;;;;;;14.13;100.00;96724.75;5048289;28;20337;-81
2022/10/12 01:09:06;;;;;;;9.13;4.67;;;;;;;14.19;100.00;96729.22;5034408;28;20236;-81
2022/10/12 01:11:33;;;;;;;9.63;5.07;;;;;;;14.18;100.00;96730.28;5038799;28;20221;-81
2022/10/12 01:14:02;;;;;;;6.10;4.60;;;;;;;14.22;100.00;96734.16;5026189;28;20227;-81
2022/10/12 01:16:37;;;;;;;11.60;5.10;;;;;;;14.24;100.00;96742.88;5038661;28;20207;-81
2022/10/12 01:19:27;;;;;;;9.33;5.57;;;;;;;14.24;100.00;96737.47;5027959;28;20237;-81
2022/10/12 01:22:01;;;;;;;9.73;5.37;;;;;;;14.24;100.00;96739.34;5030212;28;20240;-81
2022/10/12 01:24:51;;;;;;;9.30;5.07;;;;;;;14.21;100.00;96740.66;5043951;28;20203;-81
2022/10/12 01:27:44;;;;;;;8.43;5.37;;;;;;;14.18;100.00;96743.03;5026460;28;20214;-81
2022/10/12 01:30:18;;;;;;;9.27;5.30;;;;;;;14.16;100.00;96743.28;5024785;28;20202;-81
2022/10/12 01:33:18;;;;;;;9.83;5.00;;;;;;;14.18;100.00;96749.31;5047170;28;20218;-81
2022/10/12 01:35:54;;;;;;;10.87;4.67;;;;;;;14.20;100.00;96736.31;5024750;28;20202;-81
2022/10/12 01:38:38;;;;;;;10.53;5.03;;;;;;;14.21;100.00;96750.69;5027592;28;20213;-81
2022/10/12 01:41:11;;;;;;;8.87;4.27;;;;;;;14.09;100.00;96736.34;5031716;28;20584;-81
2022/10/12 01:43:41;;;;;;;10.40;5.20;;;;;;;14.03;100.00;96736.25;5042141;28;20208;-81
2022/10/12 01:46:43;;;;;;;7.90;4.63;;;;;;;14.12;100.00;96750.25;5039783;28;20205;-81
2022/10/12 01:49:14;;;;;;;6.03;4.67;;;;;;;14.08;100.00;96742.84;5026538;28;20219;-81
2022/10/12 01:52:18;;;;;;;13.87;4.70;;;;;;;14.08;100.00;96753.72;5029267;28;20217;-81
2022/10/12 01:55:02;;;;;;;6.23;4.77;;;;;;;14.08;100.00;96749.09;5009198;28;20232;-81
2022/10/12 01:57:38;;;;;;;7.27;4.90;;;;;;;14.10;100.00;96757.84;5023552;28;20205;-81
2022/10/12 02:00:09;;;;;;;10.60;4.63;;;;;;;14.07;100.00;96754.78;5031363;28;20205;-82
2022/10/12 02:02:47;;;;;;;8.97;4.77;;;;;;;14.03;100.00;96757.16;5046729;28;20201;-81
2022/10/12 02:05:25;;;;;;;9.43;4.77;;;;;;;13.96;100.00;96757.28;5030767;28;20209;-81
2022/10/12 02:07:55;;;;;;;9.57;4.97;;;;;;;14.07;100.00;96771.88;5032552;28;20194;-81
2022/10/12 02:10:26;;;;;;;6.17;4.20;;;;;;;14.08;100.00;96773.53;5027449;28;20233;-81
2022/10/12 02:12:57;;;;;;;10.20;5.10;;;;;;;14.09;100.00;96760.78;5041649;28;20198;-81
2022/10/12 02:15:27;;;;;;;9.77;5.70;;;;;;;14.08;100.00;96775.44;5038592;28;20341;-81
2022/10/12 02:17:54;;;;;;;11.20;5.80;;;;;;;14.02;100.00;96771.81;5032434;28;20297;-81
2022/10/12 02:20:25;;;;;;;7.13;5.30;;;;;;;14.06;100.00;96772.94;5030645;28;20301;-81
2022/10/12 02:22:53;;;;;;;18.87;12.97;;;;;;;14.17;100.00;96763.94;5050953;28;20194;-81
2022/10/12 02:25:24;;;;;;;14.27;8.33;;;;;;;14.30;100.00;96779.94;5027228;28;20206;-81
2022/10/12 02:27:56;;;;;;;11.47;6.83;;;;;;;14.19;100.00;96774.56;5032356;28;20210;-81
2022/10/12 02:30:24;;;;;;;10.77;6.27;;;;;;;14.09;100.00;96760.78;5027758;28;20207;-81
2022/10/12 02:32:55;;;;;;;11.77;5.67;;;;;;;14.08;100.00;96775.44;5029606;28;20199;-81
2022/10/12 02:35:32;;;;;;;11.33;5.90;;;;;;;14.04;100.00;96775.06;5030344;28;20317;-81
2022/10/12 02:38:05;;;;;;;11.10;6.10;;;;;;;14.05;100.00;96771.31;5048323;28;20380;-81
2022/10/12 02:40:37;;;;;;;11.87;6.87;;;;;;;14.05;100.00;96774.00;5019396;28;20210;-81
2022/10/12 02:43:12;;;;;;;14.43;7.00;;;;;;;14.08;100.00;96770.00;5047311;28;20202;-81
2022/10/12 02:45:43;;;;;;;11.90;7.20;;;;;;;14.16;100.00;96778.59;5047597;28;20202;-81
2022/10/12 02:48:15;;;;;;;10.77;6.67;;;;;;;14.16;100.00;96772.31;5031743;28;20515;-81
2022/10/12 02:50:45;;;;;;;17.13;6.70;;;;;;;14.18;100.00;96787.31;5050541;28;20203;-81
2022/10/12 02:53:14;;;;;;;11.63;7.93;;;;;;;14.21;100.00;96786.81;5033325;28;20202;-81
2022/10/12 02:55:48;;;;;;;14.97;7.80;;;;;;;14.18;100.00;96779.19;5032048;28;20202;-81
2022/10/12 02:58:15;;;;;;;14.60;8.43;;;;;;;14.27;100.00;96794.03;5024852;28;20241;-81
2022/10/12 03:00:43;;;;;;;13.20;8.50;;;;;;;14.28;100.00;96790.25;5050781;28;20194;-81
2022/10/12 03:03:10;;;;;;;11.33;7.97;;;;;;;14.33;100.00;96801.19;5031888;28;20206;-81
2022/10/12 03:05:37;;;;;;;17.93;8.77;;;;;;;14.28;100.00;96779.38;5032366;28;20243;-81
2022/10/12 03:08:05;;;;;;;9.77;7.77;;;;;;;14.23;100.00;96778.44;5034250;28;20198;-81
2022/10/12 03:10:32;;;;;;;15.13;8.07;;;;;;;14.29;100.00;96794.56;5034956;28;20236;-81
2022/10/12 03:13:00;;;;;;;12.43;7.33;;;;;;;14.24;100.00;96797.22;5032784;28;20206;-81
2022/10/12 03:15:27;;;;;;;14.07;7.20;;;;;;;14.20;100.00;96790.63;5031581;28;20218;-81
2022/10/12 03:17:54;;;;;;;13.83;7.17;;;;;;;14.21;100.00;96799.56;5033438;28;20251;-81
2022/10/12 03:20:21;;;;;;;19.40;7.33;;;;;;;14.16;100.00;96797.59;5029945;28;20238;-81
2022/10/12 03:22:49;;;;;;;12.43;6.73;;;;;;;14.16;100.00;96804.91;5033498;28;20198;-80
2022/10/12 03:25:17;;;;;;;10.60;6.50;;;;;;;14.07;100.00;96801.75;5033190;28;20198;-81
2022/10/12 03:27:45;;;;;;;11.83;6.30;;;;;;;14.10;100.00;96800.47;5031855;28;20214;-81
2022/10/12 03:30:12;;;;;;;14.17;7.60;;;;;;;14.08;100.00;96797.16;5036380;28;20190;-81
2022/10/12 03:32:39;;;;;;;13.00;7.07;;;;;;;14.10;100.00;96797.75;5045368;28;20209;-81
2022/10/12 03:35:07;;;;;;;11.47;7.80;;;;;;;14.11;100.00;96802.94;5036423;28;20243;-81
2022/10/12 03:37:34;;;;;;;13.77;6.60;;;;;;;14.09;100.00;96798.81;5050630;28;20206;-81
2022/10/12 03:40:02;;;;;;;11.30;6.93;;;;;;;14.06;100.00;96805.53;5038472;28;20198;-81
2022/10/12 03:42:30;;;;;;;11.83;7.10;;;;;;;14.05;100.00;96812.03;5049751;28;20198;-81
2022/10/12 03:44:57;;;;;;;10.17;6.30;;;;;;;14.03;100.00;96803.31;5046496;28;20228;-81
2022/10/12 03:47:25;;;;;;;11.23;6.90;;;;;;;14.01;100.00;96802.72;5051469;28;20202;-81
2022/10/12 03:49:52;;;;;;;13.13;8.13;;;;;;;14.00;100.00;96796.47;5043782;28;20203;-81
2022/10/12 03:52:19;;;;;;;12.50;7.70;;;;;;;14.02;100.00;96797.06;5031029;28;20209;-81
2022/10/12 03:54:46;;;;;;;10.90;7.10;;;;;;;14.05;100.00;96803.88;5033187;28;20230;-81
2022/10/12 03:57:13;;;;;;;12.93;6.90;;;;;;;13.94;100.00;96793.91;5030896;28;20237;-81
2022/10/12 03:59:41;;;;;;;8.93;5.77;;;;;;;13.90;100.00;96796.25;5029548;28;20226;-81
2022/10/12 04:02:08;;;;;;;10.67;5.80;;;;;;;13.86;100.00;96786.13;5050035;28;20210;-81
2022/10/12 04:04:35;;;;;;;9.63;6.20;;;;;;;13.89;100.00;96794.59;5043359;28;20206;-81
2022/10/12 04:07:04;;;;;;;14.67;7.20;;;;;;;13.92;100.00;96798.75;5030644;28;20202;-81
2022/10/12 04:09:31;;;;;;;9.43;5.53;;;;;;;13.80;100.00;96804.19;5033636;28;20209;-80
2022/10/12 04:11:59;;;;;;;6.47;5.50;;;;;;;13.81;100.00;96799.59;5026575;28;20217;-81
2022/10/12 04:14:26;;;;;;;8.40;5.67;;;;;;;13.75;100.00;96798.66;5035103;28;20225;-81
2022/10/12 04:16:55;;;;;;;9.23;5.47;;;;;;;13.83;100.00;96802.88;5030181;28;20256;-80
2022/10/12 04:19:22;;;;;;;18.57;7.87;;;;;;;13.80;100.00;96793.31;5034575;28;20241;-81
2022/10/12 04:21:49;;;;;;;8.57;5.57;;;;;;;13.80;100.00;96778.94;5043852;28;20213;-81
2022/10/12 04:24:16;;;;;;;13.80;6.17;;;;;;;13.87;100.00;96793.19;5024315;28;20289;-81
2022/10/12 04:26:43;;;;;;;8.00;5.30;;;;;;;13.87;100.00;96785.88;5056038;28;20257;-81
2022/10/12 04:29:12;;;;;;;11.03;5.73;;;;;;;13.94;100.00;96780.34;5033568;28;20202;-81
2022/10/12 04:31:40;;;;;;;9.47;5.50;;;;;;;13.95;100.00;96787.41;5051677;28;20220;-81
2022/10/12 04:34:09;;;;;;;9.53;4.90;;;;;;;13.89;100.00;96785.63;5046003;28;20225;-81
2022/10/12 04:36:37;;;;;;;7.70;5.07;;;;;;;13.85;100.00;96781.78;5034573;28;20198;-81
2022/10/12 04:39:04;;;;;;;10.43;4.70;;;;;;;13.81;100.00;96777.88;5032797;28;20218;-81
2022/10/12 04:41:33;;;;;;;6.57;5.13;;;;;;;13.92;100.00;96779.75;5048695;28;20190;-81
2022/10/12 04:44:00;;;;;;;10.83;5.20;;;;;;;13.86;100.00;96778.00;5045762;28;20202;-81
2022/10/12 04:46:27;;;;;;;7.47;5.43;;;;;;;13.82;100.00;96782.25;5028488;28;20209;-81
2022/10/12 04:48:54;;;;;;;9.37;5.30;;;;;;;13.78;100.00;96779.16;5043725;28;20200;-81
2022/10/12 04:51:23;;;;;;;5.97;5.00;;;;;;;13.75;100.00;96773.41;5045749;28;20194;-81
2022/10/12 04:53:52;;;;;;;7.27;5.13;;;;;;;13.78;100.00;96792.75;5029001;28;20202;-81
2022/10/12 04:56:19;;;;;;;9.20;5.47;;;;;;;13.79;100.00;96775.38;5031717;28;20202;-81
2022/10/12 04:58:46;;;;;;;8.57;5.53;;;;;;;13.74;100.00;96769.03;5048162;28;20214;-81
2022/10/12 05:01:13;;;;;;;8.70;4.93;;;;;;;13.84;100.00;96783.66;5025884;28;20195;-81
2022/10/12 05:03:41;;;;;;;9.63;5.30;;;;;;;13.77;100.00;96776.72;5025232;28;20289;-81
2022/10/12 05:06:08;;;;;;;6.23;4.87;;;;;;;13.79;100.00;96782.72;5038049;28;20212;-81
2022/10/12 05:08:37;;;;;;;6.87;4.63;;;;;;;13.75;100.00;96786.97;5021993;28;20202;-80
2022/10/12 05:11:04;;;;;;;9.13;4.87;;;;;;;13.75;100.00;96789.69;5028751;28;20250;-81
2022/10/12 05:13:31;;;;;;;9.77;6.13;;;;;;;13.70;100.00;96778.72;5048756;28;20214;-81
2022/10/12 05:15:58;;;;;;;9.90;5.87;;;;;;;13.68;100.00;96776.25;5026647;28;20219;-81
2022/10/12 05:18:26;;;;;;;7.70;5.90;;;;;;;13.76;100.00;96791.34;5046138;28;20253;-81
2022/10/12 05:20:53;;;;;;;11.83;5.77;;;;;;;13.72;100.00;96785.56;5030790;28;20206;-81
2022/10/12 05:23:21;;;;;;;8.10;5.40;;;;;;;13.71;100.00;96791.22;5044790;28;20210;-81
2022/10/12 05:25:50;;;;;;;6.97;5.30;;;;;;;13.60;100.00;96793.75;5033721;28;20210;-82
2022/10/12 05:28:17;;;;;;;12.00;5.37;;;;;;;13.63;100.00;96798.69;5030928;28;20297;-81
2022/10/12 05:30:44;;;;;;;15.57;5.33;;;;;;;13.57;100.00;96786.06;5030166;28;20209;-81
2022/10/12 05:33:16;;;;;;;9.13;4.87;;;;;;;13.66;100.00;96789.25;5032208;28;20203;-81
2022/10/12 05:35:43;;;;;;;9.03;5.23;;;;;;;13.75;100.00;96797.84;5045367;28;20236;-81
2022/10/12 05:38:11;;;;;;;8.53;5.10;;;;;;;13.76;100.00;96785.91;5026076;28;20209;-81
2022/10/12 05:40:38;;;;;;;13.30;5.00;;;;;;;13.74;100.00;96790.75;5037548;28;20198;-81
2022/10/12 05:43:06;;;;;;;8.37;5.03;;;;;;;13.61;100.00;96775.53;5022983;28;20269;-81
2022/10/12 05:45:33;;;;;;;7.07;4.90;;;;;;;13.68;100.00;96780.88;5032013;28;20195;-81
2022/10/12 05:48:00;;;;;;;7.20;5.30;;;;;;;13.69;100.00;96793.38;5029605;28;20198;-81
2022/10/12 05:50:27;;;;;;;11.03;4.70;;;;;;;13.63;100.00;96785.09;5048712;28;20201;-81
2022/10/12 05:52:55;;;;;;;9.77;5.00;;;;;;;13.62;100.00;96783.44;5045994;28;20248;-81
2022/10/12 05:55:23;;;;;;;7.37;4.73;;;;;;;13.71;100.00;96791.22;5029368;28;20222;-81
2022/10/12 05:57:51;;;;;;;11.10;4.60;;;;;;;13.55;100.00;96779.22;5040672;28;20210;-81
2022/10/12 06:00:20;;;;;;;8.90;4.33;;;;;;;13.59;100.00;96791.25;5028180;28;20265;-81
2022/10/12 06:02:48;;;;;;;6.60;4.53;;;;;;;13.52;100.00;96780.53;5059111;28;20214;-81
2022/10/12 06:05:15;;;;;;;12.53;4.80;;;;;;;13.51;100.00;96787.03;5025012;28;20220;-81
2022/10/12 06:07:42;;;;;;;7.60;4.70;;;;;;;13.53;100.00;96797.63;5029044;28;20206;-81
2022/10/12 06:10:10;;;;;;;7.53;5.00;;;;;;;13.48;100.00;96794.81;5031072;28;20218;-81
2022/10/12 06:12:38;;;;;;;7.73;6.00;;;;;;;13.54;100.00;96791.13;5026319;28;20210;-81
2022/10/12 06:15:06;;;;;;;13.43;5.10;;;;;;;13.58;100.00;96798.56;5029844;28;20229;-81
2022/10/12 06:17:35;;;;;;;9.23;4.47;;;;;;;13.55;100.00;96807.19;5032995;28;20221;-81
2022/10/12 06:20:02;;;;;;;10.10;4.73;;;;;;;13.49;100.00;96812.75;5029687;28;20238;-81
2022/10/12 06:22:29;;;;;;;10.73;4.93;;;;;;;13.46;100.00;96808.59;5041324;28;20220;-81
2022/10/12 06:24:56;;;;;;;7.60;5.40;;;;;;;13.43;100.00;96810.97;5032378;28;20197;-81
2022/10/12 06:27:24;;;;;;;9.40;5.20;;;;;;;13.46;100.00;96810.50;5054208;28;20197;-81
2022/10/12 06:29:51;;;;;;;8.97;5.53;;;;;;;13.46;100.00;96814.03;5043342;28;20284;-81
2022/10/12 06:32:18;;;;;;;8.00;5.93;;;;;;;13.46;100.00;96816.75;5034220;28;20298;-81
2022/10/12 06:34:47;;;;;;;7.10;5.07;;;;;;;13.48;100.00;96803.78;5032970;28;20222;-81
2022/10/12 06:37:14;;;;;;;7.97;5.00;;;;;;;13.51;100.00;96814.16;5041293;28;20206;-81
2022/10/12 06:39:41;;;;;;;10.37;4.83;;;;;;;13.53;100.00;96812.00;5033409;28;20209;-81
2022/10/12 06:42:10;;;;;;;9.60;5.30;;;;;;;13.51;100.00;96806.03;5035111;28;20210;-81
2022/10/12 06:44:49;;;;;;;4.87;4.43;;;;;;;13.52;100.00;96804.97;5034869;28;20194;-81
2022/10/12 06:47:17;;;;;;;6.63;4.90;;;;;;;13.43;100.00;96795.53;5034520;28;20320;-80
2022/10/12 06:49:44;;;;;;;11.57;5.03;;;;;;;13.50;100.00;96801.66;5032942;28;20202;-80
2022/10/12 06:52:13;;;;;;;8.20;4.70;;;;;;;13.45;100.00;96793.38;5022390;28;20264;-80
2022/10/12 06:54:41;;;;;;;8.80;4.70;;;;;;;13.54;100.00;96802.81;5033979;28;20202;-81
2022/10/12 06:57:08;;;;;;;9.60;5.37;;;;;;;13.51;100.00;96818.75;5032681;28;20213;-81
2022/10/12 06:59:36;;;;;;;7.97;5.77;;;;;;;13.50;100.00;96820.66;5032427;28;20213;-81
2022/10/12 07:02:03;;;;;;;7.47;5.40;;;;;;;13.48;100.00;96811.91;5031178;28;20219;-81
2022/10/12 07:04:31;;;;;;;10.13;5.80;;;;;;;13.52;100.00;96810.38;5049866;28;20199;-80
2022/10/12 07:06:59;;;;;;;7.63;6.10;;;;;;;13.52;100.00;96804.97;5034680;28;20230;-81
2022/10/12 07:09:27;;;;;;;9.40;5.23;;;;;;;13.50;100.00;96806.25;5052935;28;20206;-81
2022/10/12 07:11:54;;;;;;;8.73;5.40;;;;;;;13.52;100.00;96815.81;5054040;28;20210;-81
2022/10/12 07:14:21;;;;;;;10.67;6.13;;;;;;;13.45;100.00;96815.09;5023881;28;20194;-81
2022/10/12 07:16:50;;;;;;;11.07;6.27;;;;;;;13.54;100.00;96815.56;5037030;28;20234;-81
2022/10/12 07:19:17;;;;;;;8.77;5.10;;;;;;;13.62;100.00;96821.44;5051775;28;20313;-81
2022/10/12 07:21:45;;;;;;;6.47;4.83;;;;;;;13.69;100.00;96831.38;5050288;28;20198;-81
2022/10/12 07:24:12;;;;;;;6.57;4.93;;;;;;;13.63;100.00;96828.53;5032607;28;20498;-81
2022/10/12 07:26:42;;;;;;;10.70;4.27;;;;;;;13.66;100.00;96831.84;5040393;28;20218;-80
2022/10/12 07:29:10;;;;;;;7.07;4.47;;;;;;;13.71;100.00;96834.66;5030909;28;20310;-81
2022/10/12 07:31:37;;;;;;;8.23;4.37;;;;;;;13.56;100.00;96822.41;5048907;28;20252;-81
2022/10/12 07:34:04;;;;;;;6.90;4.40;;;;;;;13.51;100.00;96830.44;5032912;28;20206;-80
2022/10/12 07:36:31;;;;;;;12.13;4.50;;;;;;;13.56;100.00;96830.53;5036782;28;20226;-80
2022/10/12 07:38:59;;;;;;;7.27;4.77;;;;;;;13.59;100.00;96835.50;5033462;28;20206;-80
2022/10/12 07:41:26;;;;;;;6.43;4.67;;;;;;;13.62;100.00;96829.59;5043292;28;20200;-81
2022/10/12 07:43:56;;;;;;;5.20;4.20;;;;;;;13.61;100.00;96827.94;5061159;28;20228;-81
2022/10/12 07:46:24;;;;;;;7.70;3.97;;;;;;;13.69;100.00;96831.38;5039316;28;20271;-81
2022/10/12 07:48:51;;;;;;;8.27;4.20;;;;;;;13.80;100.00;96833.22;5041141;28;20202;-80
2022/10/12 07:51:18;;;;;;;6.10;3.80;;;;;;;13.78;100.00;96838.09;5043715;28;20211;-80
2022/10/12 07:53:46;;;;;;;5.40;3.60;;;;;;;13.79;100.00;96835.09;5047768;28;20203;-81
2022/10/12 07:56:17;;;;;;;4.77;3.57;;;;;;;13.76;100.00;96824.75;5031278;28;20225;-81
2022/10/12 07:58:49;;;;;;;6.63;3.10;;;;;;;13.81;100.00;96829.44;5033778;28;20222;-80
2022/10/12 08:01:19;;;;;;;5.93;3.47;;;;;;;13.87;100.00;96833.91;5032739;28;20206;-81
2022/10/12 08:03:47;;;;;;;3.67;3.37;;;;;;;13.87;100.00;96842.88;5031081;28;20206;-81
2022/10/12 08:06:16;;;;;;;6.00;3.60;;;;;;;13.90;100.00;96841.59;5037791;28;20202;-81
2022/10/12 08:08:43;;;;;;;3.73;3.37;;;;;;;13.88;100.00;96833.66;5032428;28;20202;-81
2022/10/12 08:11:11;;;;;;;6.80;3.83;;;;;;;13.93;100.00;96841.13;5030285;28;20231;-81
2022/10/12 08:13:39;;;;;;;4.97;3.63;;;;;;;13.93;100.00;96833.81;5029838;28;20206;-80
2022/10/12 08:16:10;;;;;;;7.00;3.83;;;;;;;13.94;100.00;96838.16;5028585;28;20221;-80
2022/10/12 08:19:04;;;;;;;4.30;3.53;;;;;;;13.99;100.00;96826.56;5044581;28;20229;-80
2022/10/12 08:21:56;;;;;;;6.00;3.63;;;;;;;14.01;100.00;96829.88;5045123;28;20217;-80
2022/10/12 08:24:48;;;;;;;4.47;3.17;;;;;;;14.02;100.00;96826.09;5050503;28;20218;-80
2022/10/12 08:27:15;;;;;;;16.90;3.97;;;;;;;14.06;100.00;96834.56;5028823;28;20201;-80
2022/10/12 08:29:42;;;;;;;6.27;2.93;;;;;;;14.09;100.00;96832.22;5018145;28;20214;-81
2022/10/12 08:32:34;;;;;;;3.47;2.47;;;;;;;14.12;100.00;96823.56;5046096;28;20340;-80
2022/10/12 08:35:26;;;;;;;6.63;3.33;;;;;;;14.20;100.00;96820.50;5045601;28;20229;-81
2022/10/12 08:37:55;;;;;;;7.37;3.13;;;;;;;14.23;100.00;96822.72;5041938;28;20208;-80
2022/10/12 08:40:30;;;;;;;6.07;3.13;;;;;;;14.25;100.00;96804.28;5040851;28;20191;-80
2022/10/12 08:43:34;;;;;;;4.10;3.40;;;;;;;14.44;100.00;96823.16;5035147;28;20205;-80
2022/10/12 08:46:06;;;;;;;9.10;4.00;;;;;;;14.60;100.00;96814.22;5031098;28;20202;-80
2022/10/12 08:48:41;;;;;;;8.37;4.50;;;;;;;14.65;100.00;96811.56;5030350;28;20203;-80
2022/10/12 08:51:44;;;;;;;6.53;2.90;;;;;;;14.80;100.00;96805.59;5048179;28;20212;-80
2022/10/12 08:54:45;;;;;;;9.60;5.40;;;;;;;14.95;100.00;96806.69;5048060;28;20224;-80
2022/10/12 08:57:17;;;;;;;10.47;6.10;;;;;;;15.07;100.00;96812.03;5049435;28;20222;-81
2022/10/12 08:59:45;;;;;;;8.10;6.37;;;;;;;15.22;100.00;96811.47;5047941;28;20207;-81
2022/10/12 09:02:31;;;;;;;11.43;7.50;;;;;;;15.31;100.00;96810.78;5041756;28;20214;-81
2022/10/12 09:05:08;;;;;;;10.57;6.87;;;;;;;15.39;100.00;96809.56;5030408;28;20272;-80
2022/10/12 09:08:07;;;;;;;10.13;6.10;;;;;;;15.50;100.00;96811.31;5045498;28;20209;-80
2022/10/12 09:10:45;;;;;;;8.97;6.57;;;;;;;15.61;100.00;96806.91;5031331;28;20228;-80
2022/10/12 09:13:24;;;;;;;11.40;6.30;;;;;;;15.72;100.00;96803.25;5025219;28;20212;-80
2022/10/12 09:15:56;;;;;;;10.50;5.67;;;;;;;15.80;100.00;96800.91;5019814;28;20280;-82
2022/10/12 09:18:34;;;;;;;10.80;5.83;;;;;;;15.89;100.00;96807.56;5032359;28;20267;-80
2022/10/12 09:21:05;;;;;;;8.67;5.00;;;;;;;15.93;100.00;96802.44;5033888;28;20210;-80
2022/10/12 09:23:38;;;;;;;8.93;5.97;;;;;;;16.00;100.00;96807.66;5015097;28;20248;-80
2022/10/12 09:26:15;;;;;;;8.90;5.87;;;;;;;16.10;100.00;96808.63;5028993;28;20217;-81
2022/10/12 09:28:44;;;;;;;9.77;5.70;;;;;;;16.31;100.00;96800.72;5030203;28;20219;-80
2022/10/12 09:31:33;;;;;;;7.03;4.37;;;;;;;16.35;100.00;96812.72;5048089;28;20206;-80
2022/10/12 09:34:05;;;;;;;7.97;5.90;;;;;;;16.47;100.00;96805.25;5040819;28;20205;-80
2022/10/12 09:36:35;;;;;;;10.33;6.27;;;;;;;16.60;100.00;96813.81;5049731;28;20218;-80
2022/10/12 09:39:07;;;;;;;11.40;6.37;;;;;;;16.73;100.00;96809.09;5034665;28;20226;-81
2022/10/12 09:41:38;;;;;;;9.23;6.10;;;;;;;16.90;100.00;96807.06;5044043;28;20198;-80
2022/10/12 09:44:07;;;;;;;11.20;6.77;;;;;;;17.07;100.00;96806.94;5029426;28;20202;-80
2022/10/12 09:46:40;;;;;;;12.20;8.00;;;;;;;17.14;100.00;96794.72;5028496;28;20198;-80
2022/10/12 09:49:07;;;;;;;15.40;9.10;;;;;;;17.27;100.00;96797.00;5021263;28;20297;-80
2022/10/12 09:51:35;;;;;;;14.03;9.13;;;;;;;17.36;100.00;96797.31;5050709;28;20194;-80
2022/10/12 09:54:05;;;;;;;15.83;9.77;;;;;;;17.43;100.00;96794.41;5034073;28;20275;-80
2022/10/12 09:56:38;;;;;;;18.87;10.67;;;;;;;17.59;100.00;96791.50;5036581;28;20222;-80
2022/10/12 09:59:17;;;;;;;15.23;10.93;;;;;;;17.71;100.00;96788.56;5051046;28;20198;-80
2022/10/12 10:01:58;;;;;;;19.57;11.83;;;;;;;17.78;100.00;96791.88;5028414;28;20241;-80
2022/10/12 10:04:28;;;;;;;16.40;10.70;;;;;;;17.79;100.00;96788.06;5027866;28;20316;-80
2022/10/12 10:06:56;;;;;;;15.97;10.57;;;;;;;17.90;100.00;96788.94;5047161;28;20198;-81
2022/10/12 10:09:32;;;;;;;18.67;11.77;;;;;;;18.02;100.00;96795.03;5031683;28;20209;-81
2022/10/12 10:12:13;;;;;;;19.60;11.90;;;;;;;18.12;100.00;96809.53;5041698;28;20292;-81
2022/10/12 10:14:43;;;;;;;19.53;11.57;;;;;;;18.18;100.00;96783.06;5042184;28;20234;-81
2022/10/12 10:17:15;;;;;;;20.23;11.37;;;;;;;18.43;100.00;96793.25;5027857;28;20283;-80
2022/10/12 10:19:49;;;;;;;17.57;11.10;;;;;;;18.66;100.00;96800.19;5029790;28;20241;-81
2022/10/12 10:22:17;;;;;;;24.08;10.90;;;;;;;18.84;100.00;96792.28;5043626;28;20210;-81
2022/10/12 10:24:51;;;;;;;15.13;10.65;;;;;;;18.94;100.00;96801.59;5047096;28;20210;-80
2022/10/12 10:27:30;;;;;;;16.10;10.82;;;;;;;19.07;100.00;96793.66;5042852;28;20202;-81
2022/10/12 10:30:20;;;;;;;14.80;10.63;;;;;;;19.28;100.00;96797.22;5048002;28;20227;-81
2022/10/12 10:32:48;;;;;;;19.00;10.60;;;;;;;19.44;100.00;96789.81;5030379;28;20209;-81
2022/10/12 10:35:21;;;;;;;18.80;11.52;;;;;;;19.43;100.00;96783.50;5028301;28;20269;-81
2022/10/12 10:37:50;;;;;;;20.52;9.85;;;;;;;19.14;100.00;96785.19;5024202;28;20222;-81
2022/10/12 10:40:23;;;;;;;15.65;10.02;;;;;;;18.87;100.00;96794.47;5030433;28;20238;-81
2022/10/12 10:42:52;;;;;;;14.95;9.57;;;;;;;18.73;100.00;96795.25;5018969;28;20218;-81
2022/10/12 10:45:26;;;;;;;17.73;9.32;;;;;;;18.58;100.00;96790.59;5049949;28;20201;-81
2022/10/12 10:48:00;;;;;;;15.85;10.38;;;;;;;18.49;100.00;96800.38;5047482;28;20201;-81
2022/10/12 10:50:33;;;;;;;13.27;9.80;;;;;;;18.38;100.00;96798.69;5046564;28;20282;-81
2022/10/12 10:53:03;;;;;;;14.90;10.63;;;;;;;18.33;100.00;96801.44;5032931;28;20272;-81
2022/10/12 10:55:44;;;;;;;15.03;10.33;;;;;;;18.25;100.00;96801.94;5031721;28;20213;-81
2022/10/12 10:58:22;;;;;;;20.70;10.63;;;;;;;18.24;100.00;96792.09;5030052;28;20213;-81
2022/10/12 11:00:51;;;;;;;19.73;10.30;;;;;;;18.28;100.00;96788.56;5030868;28;20264;-81
2022/10/12 11:03:25;;;;;;;18.30;10.53;;;;;;;18.35;100.00;96793.78;5037922;28;20202;-81
2022/10/12 11:05:57;;;;;;;19.63;11.20;;;;;;;18.35;100.00;96791.88;5042076;28;20205;-81
2022/10/12 11:08:27;;;;;;;19.38;10.38;;;;;;;18.29;100.00;96789.41;5033877;28;20206;-81
2022/10/12 11:11:00;;;;;;;18.15;10.73;;;;;;;18.32;100.00;96780.63;5031118;28;20234;-82
2022/10/12 11:13:33;;;;;;;14.23;10.60;;;;;;;18.40;100.00;96791.06;5030969;28;20213;-82
2022/10/12 11:16:08;;;;;;;16.67;10.27;;;;;;;18.38;100.00;96794.06;5043987;28;20202;-82
2022/10/12 11:18:40;;;;;;;15.50;10.73;;;;;;;18.39;100.00;96794.88;5036303;28;20205;-82
2022/10/12 11:21:12;;;;;;;16.33;10.63;;;;;;;18.35;100.00;96793.78;5053077;28;20221;-82
2022/10/12 11:23:46;;;;;;;13.83;10.77;;;;;;;18.37;100.00;96794.34;5034114;28;20209;-82
2022/10/12 11:26:23;;;;;;;15.13;9.67;;;;;;;18.28;100.00;96788.56;5041190;28;20301;-81
2022/10/12 11:28:51;;;;;;;18.87;10.27;;;;;;;18.21;100.00;96787.16;5048299;28;20206;-80
2022/10/12 11:31:26;;;;;;;16.83;10.67;;;;;;;18.18;100.00;96785.81;5034984;28;20198;-81
2022/10/12 11:33:56;;;;;;;14.82;10.00;;;;;;;18.33;100.00;96785.03;5033285;28;20210;-81
2022/10/12 11:36:26;;;;;;;17.88;10.80;;;;;;;18.35;100.00;96785.59;5027515;28;20222;-81
2022/10/12 11:38:58;;;;;;;20.40;11.23;;;;;;;18.36;100.00;96779.84;5051982;28;20198;-81